Time;durP1;ratioP1;P1;durP2;ratioP2;P2;SDS_P1;SDS_P2;PMS_P1;PMS_P2;Temp;Humidity;BMP_temperature;BMP_pressure;BME280_temperature;BME280_humidity;BME280_pressure;Samples;Min_cycle;Max_cycle;Signal;HPM_P1;HPM_P2
2024/03/21 00:01:19;;;;;;;11.27;7.85;;;;;;;12.80;79.01;101090.91;5053059;28;20048;-75
2024/03/21 00:04:24;;;;;;;13.05;8.02;;;;;;;12.84;79.03;101084.28;5040743;28;20072;-77
2024/03/21 00:07:28;;;;;;;10.48;7.43;;;;;;;12.90;78.40;101087.31;5056853;28;20056;-75
2024/03/21 00:10:33;;;;;;;10.45;7.93;;;;;;;12.71;79.61;101089.03;5056750;28;20052;-75
2024/03/21 00:13:37;;;;;;;15.60;9.27;;;;;;;12.51;79.79;101092.53;5044451;28;20052;-76
2024/03/21 00:16:42;;;;;;;12.77;8.25;;;;;;;12.46;80.42;101092.94;5056628;28;20068;-76
2024/03/21 00:19:47;;;;;;;11.68;7.90;;;;;;;12.05;81.95;101085.59;5056603;28;20570;-77
2024/03/21 00:22:51;;;;;;;12.13;8.48;;;;;;;12.08;82.25;101082.66;5043865;28;20079;-76
2024/03/21 00:26:03;;;;;;;12.25;7.63;;;;;;;12.12;82.48;101073.31;5056482;28;20044;-76
2024/03/21 00:29:07;;;;;;;10.50;7.82;;;;;;;12.26;82.11;101073.06;5056339;28;20056;-76
2024/03/21 00:32:15;;;;;;;12.85;8.65;;;;;;;12.21;81.58;101067.19;5056259;28;20475;-76
2024/03/21 00:35:20;;;;;;;11.20;7.45;;;;;;;12.11;81.61;101066.25;5054887;28;20040;-76
2024/03/21 00:38:24;;;;;;;11.70;8.02;;;;;;;12.02;82.37;101071.53;5056235;28;20495;-76
2024/03/21 00:41:29;;;;;;;12.85;8.20;;;;;;;11.84;83.32;101060.44;5056007;28;20056;-76
2024/03/21 00:44:34;;;;;;;12.00;7.82;;;;;;;12.11;82.21;101054.63;5056072;28;20040;-76
2024/03/21 00:47:39;;;;;;;12.85;8.43;;;;;;;12.05;81.95;101049.75;5056010;28;20044;-76
2024/03/21 00:50:44;;;;;;;14.23;8.05;;;;;;;11.99;81.90;101052.97;5055472;28;20067;-76
2024/03/21 00:53:48;;;;;;;13.93;7.57;;;;;;;12.01;81.87;101054.53;5055865;28;20388;-76
2024/03/21 00:56:53;;;;;;;11.07;7.18;;;;;;;12.27;80.34;101055.06;5055785;28;20056;-75
2024/03/21 00:59:57;;;;;;;12.45;7.65;;;;;;;11.94;81.63;101053.34;5055797;28;20427;-75
2024/03/21 01:03:02;;;;;;;11.27;6.97;;;;;;;12.44;79.99;101053.66;5055670;28;20056;-76
2024/03/21 01:06:07;;;;;;;11.50;7.25;;;;;;;11.90;81.15;101059.94;5055618;28;20120;-76
2024/03/21 01:09:11;;;;;;;10.80;7.65;;;;;;;12.08;81.11;101057.56;5055611;28;20052;-76
2024/03/21 01:12:16;;;;;;;11.32;7.78;;;;;;;12.05;81.80;101055.13;5055561;28;20052;-76
2024/03/21 01:15:20;;;;;;;9.88;6.82;;;;;;;11.99;81.82;101052.97;5043241;28;20144;-76
2024/03/21 01:18:34;;;;;;;9.80;7.30;;;;;;;12.07;81.15;101042.41;5054869;28;20060;-75
2024/03/21 01:21:39;;;;;;;11.23;7.30;;;;;;;11.89;81.57;101042.09;5061484;28;20075;-76
2024/03/21 01:24:46;;;;;;;12.80;7.90;;;;;;;11.91;81.87;101045.50;5063021;28;20052;-76
2024/03/21 01:27:51;;;;;;;11.65;7.65;;;;;;;12.14;80.98;101040.94;5075257;28;20052;-76
2024/03/21 01:30:59;;;;;;;11.68;7.55;;;;;;;12.33;80.44;101041.09;5051559;28;20055;-76
2024/03/21 01:34:05;;;;;;;9.77;7.50;;;;;;;11.92;81.72;101041.00;5074642;28;20055;-75
2024/03/21 01:37:09;;;;;;;10.85;8.13;;;;;;;11.92;82.38;101047.25;5054636;28;20526;-76
2024/03/21 01:40:17;;;;;;;11.35;8.20;;;;;;;12.06;81.50;101046.09;5054674;28;20051;-76
2024/03/21 01:43:24;;;;;;;14.52;7.65;;;;;;;12.07;81.68;101040.56;5042854;28;20381;-76
2024/03/21 01:46:29;;;;;;;10.68;7.63;;;;;;;11.92;81.61;101041.84;5053910;28;20511;-75
2024/03/21 01:49:33;;;;;;;9.32;6.55;;;;;;;11.97;81.43;101036.09;5054344;28;20064;-76
2024/03/21 01:52:40;;;;;;;10.55;6.68;;;;;;;11.72;82.15;101035.44;5054778;28;20060;-77
2024/03/21 01:55:45;;;;;;;10.55;6.93;;;;;;;11.87;80.94;101027.94;5042400;28;20459;-76
2024/03/21 01:58:49;;;;;;;16.27;7.53;;;;;;;11.86;81.53;101036.97;5054697;28;20048;-76
2024/03/21 02:01:56;;;;;;;10.55;6.72;;;;;;;11.84;81.50;101030.88;5054515;28;20048;-77
2024/03/21 02:05:00;;;;;;;11.13;7.10;;;;;;;11.99;80.64;101023.34;5042573;28;20072;-77
2024/03/21 02:08:08;;;;;;;9.73;6.72;;;;;;;12.04;80.65;101016.63;5042376;28;20059;-76
2024/03/21 02:11:15;;;;;;;13.63;7.28;;;;;;;11.81;81.37;101009.59;5054415;28;20068;-76
2024/03/21 02:14:27;;;;;;;14.05;6.78;;;;;;;12.00;80.65;101007.06;5054367;28;20056;-77
2024/03/21 02:17:31;;;;;;;12.18;7.00;;;;;;;12.21;79.78;101008.00;5054660;28;20060;-76
2024/03/21 02:20:36;;;;;;;8.90;6.53;;;;;;;12.14;79.99;101006.81;5054308;28;20048;-77
2024/03/21 02:23:41;;;;;;;11.43;6.93;;;;;;;11.92;80.60;101001.50;5041991;28;20048;-77
2024/03/21 02:26:46;;;;;;;13.07;7.20;;;;;;;11.82;81.37;101008.63;5041802;28;20048;-77
2024/03/21 02:29:52;;;;;;;13.00;6.95;;;;;;;11.91;80.78;101002.47;5041057;28;20495;-77
2024/03/21 02:32:56;;;;;;;8.63;6.20;;;;;;;11.97;79.71;100991.22;5060824;28;20507;-77
2024/03/21 02:36:01;;;;;;;8.40;6.57;;;;;;;11.79;80.91;100989.19;5053954;28;20052;-77
2024/03/21 02:39:06;;;;;;;11.65;5.90;;;;;;;11.97;80.18;100985.84;5054023;28;20432;-76
2024/03/21 02:42:11;;;;;;;9.02;6.65;;;;;;;11.79;80.44;100981.09;5053893;28;20056;-77
2024/03/21 02:45:16;;;;;;;12.55;6.57;;;;;;;11.91;80.24;100986.34;5054025;28;20392;-77
2024/03/21 02:48:21;;;;;;;8.77;6.03;;;;;;;11.78;80.60;100977.56;5053783;28;20052;-76
2024/03/21 02:51:25;;;;;;;9.75;6.45;;;;;;;11.73;80.68;100980.63;5053043;28;20071;-76
2024/03/21 02:54:31;;;;;;;9.00;6.25;;;;;;;11.68;81.36;100984.69;5053748;28;20060;-76
2024/03/21 02:57:36;;;;;;;9.13;6.45;;;;;;;11.91;80.28;100985.47;5041354;28;20119;-77
2024/03/21 03:00:40;;;;;;;10.77;6.20;;;;;;;11.58;81.42;100983.69;5041407;28;20376;-76
2024/03/21 03:03:45;;;;;;;7.90;5.82;;;;;;;11.70;80.65;100975.50;5041476;28;20067;-77
2024/03/21 03:06:49;;;;;;;10.77;6.38;;;;;;;11.48;81.54;100967.47;5053546;28;20044;-76
2024/03/21 03:09:53;;;;;;;6.82;5.97;;;;;;;11.59;81.44;100969.28;5053287;28;20463;-76
2024/03/21 03:12:59;;;;;;;9.02;6.75;;;;;;;11.70;81.20;100975.50;5053559;28;20052;-76
2024/03/21 03:16:04;;;;;;;9.25;6.07;;;;;;;11.81;80.25;100973.75;5040958;28;20048;-77
2024/03/21 03:19:08;;;;;;;9.57;6.47;;;;;;;11.69;80.46;100981.88;5041100;28;20052;-76
2024/03/21 03:22:22;;;;;;;8.57;5.88;;;;;;;11.86;80.28;100972.41;5041046;28;20052;-77
2024/03/21 03:25:27;;;;;;;9.38;5.70;;;;;;;11.40;81.72;100975.31;5053549;28;20052;-76
2024/03/21 03:28:31;;;;;;;12.75;5.93;;;;;;;11.13;82.71;100973.00;5053159;28;20052;-76
2024/03/21 03:31:36;;;;;;;11.05;6.30;;;;;;;11.31;81.99;100984.09;5053265;28;20052;-76
2024/03/21 03:38:04;;;;;;;10.68;6.55;;;;;;;11.26;82.23;100977.41;5053273;28;20052;-76
2024/03/21 03:41:09;;;;;;;10.63;5.47;;;;;;;11.33;82.20;100984.00;5042777;28;20048;-76
2024/03/21 03:44:15;;;;;;;9.30;5.75;;;;;;;11.52;81.48;100981.53;5045005;28;20081;-76
2024/03/21 03:47:20;;;;;;;8.30;5.78;;;;;;;11.47;81.17;100981.91;5056921;28;20048;-76
2024/03/21 03:50:25;;;;;;;9.18;5.78;;;;;;;11.49;81.45;100973.69;5056550;28;20060;-76
2024/03/21 03:53:29;;;;;;;9.00;6.13;;;;;;;11.47;81.53;100975.66;5057012;28;20392;-76
2024/03/21 03:56:34;;;;;;;7.95;5.90;;;;;;;11.54;80.99;100983.09;5056937;28;20052;-76
2024/03/21 03:59:39;;;;;;;11.63;6.03;;;;;;;11.49;80.99;100976.38;5056889;28;20107;-76
2024/03/21 04:02:44;;;;;;;10.15;6.07;;;;;;;11.29;81.90;100974.47;5056693;28;20067;-76
2024/03/21 04:06:15;;;;;;;8.00;5.20;;;;;;;11.28;81.58;100981.69;5056712;28;20040;-77
2024/03/21 04:09:20;;;;;;;7.95;5.22;;;;;;;11.11;81.54;100982.16;5056785;28;20052;-77
2024/03/21 04:12:24;;;;;;;10.80;5.43;;;;;;;11.06;82.15;100982.53;5056712;28;20056;-76
2024/03/21 04:15:29;;;;;;;9.40;5.75;;;;;;;10.94;82.15;100990.72;5056617;28;20052;-77
2024/03/21 04:18:33;;;;;;;10.88;6.25;;;;;;;10.86;82.57;100985.94;5056626;28;20056;-76
2024/03/21 04:21:38;;;;;;;9.65;6.20;;;;;;;11.06;82.48;100984.34;5056418;28;20067;-77
2024/03/21 04:24:43;;;;;;;9.15;5.55;;;;;;;10.79;82.92;100986.56;5056468;28;20052;-77
2024/03/21 04:27:48;;;;;;;10.80;6.10;;;;;;;10.79;83.28;100979.34;5056393;28;20407;-76
2024/03/21 04:30:53;;;;;;;10.23;5.53;;;;;;;10.81;83.05;100977.41;5056342;28;20052;-77
2024/03/21 04:33:57;;;;;;;9.00;5.72;;;;;;;10.60;83.92;100976.41;5056390;28;20059;-77
2024/03/21 04:37:02;;;;;;;9.98;6.50;;;;;;;10.77;82.65;100980.44;5062640;28;20048;-77
2024/03/21 04:40:08;;;;;;;10.20;5.78;;;;;;;10.51;83.30;100977.13;5075738;28;20047;-76
2024/03/21 04:43:12;;;;;;;11.82;5.80;;;;;;;10.46;84.05;100987.38;5063796;28;20498;-76
2024/03/21 04:46:16;;;;;;;9.23;6.15;;;;;;;10.35;84.57;100988.19;5075884;28;20046;-76
2024/03/21 04:49:21;;;;;;;15.15;6.15;;;;;;;10.28;84.90;100996.81;5075999;28;20051;-76
2024/03/21 04:52:27;;;;;;;13.35;6.47;;;;;;;10.45;84.54;100997.25;5062415;28;20051;-76
2024/03/21 04:55:31;;;;;;;8.05;5.53;;;;;;;10.61;83.69;100996.91;5075630;28;20487;-76
2024/03/21 04:58:36;;;;;;;11.73;5.82;;;;;;;10.45;84.31;101001.75;5075777;28;20051;-76
2024/03/21 05:01:41;;;;;;;8.63;5.88;;;;;;;10.45;84.98;101001.75;5075441;28;20047;-76
2024/03/21 05:04:46;;;;;;;12.75;5.88;;;;;;;10.52;83.84;101002.16;5075169;28;20052;-76
2024/03/21 05:07:51;;;;;;;10.05;7.03;;;;;;;10.78;83.64;101009.03;5075663;28;20059;-76
2024/03/21 05:10:56;;;;;;;9.57;6.00;;;;;;;10.83;83.05;101012.19;5075640;28;20048;-76
2024/03/21 05:14:01;;;;;;;9.05;6.15;;;;;;;10.82;82.86;101011.34;5075572;28;20043;-76
2024/03/21 05:17:05;;;;;;;11.20;5.50;;;;;;;10.67;83.87;101011.66;5075184;28;20052;-76
2024/03/21 05:20:10;;;;;;;9.82;6.13;;;;;;;10.74;83.87;101013.75;5075371;28;20040;-76
2024/03/21 05:23:15;;;;;;;11.07;6.47;;;;;;;10.89;82.93;101007.19;5075257;28;20059;-76
2024/03/21 05:26:19;;;;;;;10.00;6.13;;;;;;;11.06;82.72;101014.78;5050795;28;20507;-77
2024/03/21 05:29:24;;;;;;;10.15;5.72;;;;;;;10.95;82.16;101011.25;5054664;28;20400;-76
2024/03/21 05:32:30;;;;;;;12.90;6.47;;;;;;;11.04;82.58;101008.69;5055123;28;20500;-76
2024/03/21 05:35:35;;;;;;;11.35;6.18;;;;;;;10.89;82.55;101004.50;5055224;28;20056;-76
2024/03/21 05:38:40;;;;;;;12.23;5.75;;;;;;;10.94;82.47;101015.75;5054623;28;20060;-78
2024/03/21 05:41:45;;;;;;;11.07;5.78;;;;;;;10.82;82.55;101013.16;5054900;28;20499;-76
2024/03/21 05:44:49;;;;;;;10.60;6.57;;;;;;;10.98;82.46;101002.94;5042682;28;20060;-76
2024/03/21 05:47:54;;;;;;;9.60;6.10;;;;;;;11.03;82.11;101006.97;5054728;28;20064;-76
2024/03/21 05:50:59;;;;;;;10.00;6.20;;;;;;;11.19;81.46;101005.72;5054292;28;20068;-77
2024/03/21 05:54:06;;;;;;;9.20;6.07;;;;;;;11.46;80.55;101004.38;5054836;28;20071;-76
2024/03/21 05:57:11;;;;;;;9.82;6.32;;;;;;;11.69;79.96;101006.09;5054754;28;20052;-77
2024/03/21 06:00:17;;;;;;;11.05;6.15;;;;;;;12.03;78.75;101012.22;5054673;28;20060;-76
2024/03/21 06:03:22;;;;;;;10.07;6.05;;;;;;;12.29;77.66;101012.72;5054058;28;20075;-77
2024/03/21 06:06:28;;;;;;;8.55;5.65;;;;;;;12.14;78.03;101014.00;5054620;28;20052;-77
2024/03/21 06:09:32;;;;;;;10.50;6.38;;;;;;;12.09;77.81;101011.72;5054553;28;20079;-77
2024/03/21 06:12:37;;;;;;;9.38;6.53;;;;;;;11.99;78.42;101016.16;5054789;28;20056;-76
2024/03/21 06:15:42;;;;;;;9.85;6.35;;;;;;;12.21;78.04;101010.69;5042129;28;20384;-76
2024/03/21 06:18:47;;;;;;;8.07;6.25;;;;;;;12.05;79.15;101009.38;5042157;28;20056;-76
2024/03/21 06:21:51;;;;;;;10.20;6.10;;;;;;;12.68;76.70;101008.47;5053946;28;20068;-76
2024/03/21 06:24:57;;;;;;;9.73;5.90;;;;;;;12.99;75.72;101008.34;5054268;28;20048;-76
2024/03/21 06:28:01;;;;;;;11.40;6.72;;;;;;;13.17;75.06;101015.84;5053947;28;20052;-76
2024/03/21 06:31:07;;;;;;;10.98;6.03;;;;;;;13.42;73.59;101010.84;5054227;28;20048;-77
2024/03/21 06:34:12;;;;;;;15.45;6.75;;;;;;;13.63;72.91;101008.91;5041846;28;20072;-77
2024/03/21 06:37:16;;;;;;;9.73;6.72;;;;;;;13.90;71.72;101008.25;5045243;28;20393;-77
2024/03/21 06:40:23;;;;;;;11.85;6.25;;;;;;;13.69;72.53;100999.44;5073257;28;20044;-76
2024/03/21 06:43:27;;;;;;;8.95;5.45;;;;;;;14.00;72.49;101003.72;5050111;28;20051;-77
2024/03/21 06:46:31;;;;;;;10.30;5.82;;;;;;;14.49;70.89;100999.22;5073716;28;20044;-76
2024/03/21 06:49:37;;;;;;;17.17;6.68;;;;;;;14.29;71.52;101011.84;5073485;28;20059;-76
2024/03/21 06:52:44;;;;;;;19.40;9.20;;;;;;;14.35;71.42;100997.81;5073750;28;20487;-77
2024/03/21 06:55:53;;;;;;;16.48;9.93;;;;;;;14.45;71.23;101001.34;5073652;28;20087;-75
2024/03/21 06:58:58;;;;;;;15.55;7.75;;;;;;;14.25;72.15;101003.19;5071599;28;20056;-76
2024/03/21 07:02:03;;;;;;;13.05;6.72;;;;;;;14.29;72.19;101009.16;5052584;28;20056;-75
2024/03/21 07:05:08;;;;;;;13.50;6.95;;;;;;;14.27;73.35;101003.88;5051464;28;20060;-75
2024/03/21 07:08:13;;;;;;;11.27;7.40;;;;;;;14.44;72.76;100991.56;5052555;28;20392;-75
2024/03/21 07:11:18;;;;;;;11.20;6.35;;;;;;;14.94;71.88;100993.00;5053468;28;20067;-75
2024/03/21 07:14:22;;;;;;;12.80;7.47;;;;;;;15.16;71.15;100988.25;5048904;28;20412;-75
2024/03/21 07:17:27;;;;;;;12.68;6.88;;;;;;;15.34;70.28;100997.25;5053289;28;20060;-75
2024/03/21 07:20:32;;;;;;;9.52;6.82;;;;;;;15.87;69.44;100995.56;5054267;28;20056;-74
2024/03/21 07:23:38;;;;;;;11.77;7.13;;;;;;;16.48;67.54;100997.50;5053131;28;20052;-75
2024/03/21 07:26:42;;;;;;;12.35;7.43;;;;;;;17.31;65.28;101014.00;5053209;28;20055;-74
2024/03/21 07:29:47;;;;;;;11.48;6.20;;;;;;;17.16;64.67;101015.63;5053009;28;20416;-76
2024/03/21 07:32:52;;;;;;;12.10;7.30;;;;;;;17.23;64.41;101007.72;5040623;28;20068;-75
2024/03/21 07:35:57;;;;;;;12.75;6.85;;;;;;;17.37;63.73;101005.25;5052905;28;20044;-78
2024/03/21 07:39:02;;;;;;;10.95;6.97;;;;;;;17.31;64.00;101014.00;5051914;28;20127;-78
2024/03/21 07:42:07;;;;;;;9.52;7.28;;;;;;;18.50;61.20;101019.16;5052870;28;20045;-79
2024/03/21 07:45:12;;;;;;;12.48;7.22;;;;;;;19.87;56.25;101012.56;5053474;28;20048;-81
2024/03/21 07:48:18;;;;;;;12.02;7.22;;;;;;;20.52;53.74;101023.91;5053097;28;20045;-78
2024/03/21 07:51:24;;;;;;;15.98;7.28;;;;;;;21.24;52.38;101028.72;5052807;28;20047;-73
2024/03/21 07:54:29;;;;;;;9.57;6.07;;;;;;;23.09;47.96;101027.94;5053242;28;20056;-70
2024/03/21 07:57:34;;;;;;;14.45;6.72;;;;;;;24.54;43.93;101029.50;5053213;28;20384;-75
2024/03/21 08:00:39;;;;;;;13.85;6.78;;;;;;;26.03;40.13;101023.16;5040905;28;20044;-74
2024/03/21 08:03:44;;;;;;;8.95;5.97;;;;;;;27.73;36.86;101028.19;5041000;28;20071;-74
2024/03/21 08:06:49;;;;;;;10.85;6.05;;;;;;;29.56;33.26;101032.00;5053143;28;20052;-77
2024/03/21 08:09:53;;;;;;;11.07;6.60;;;;;;;31.03;31.20;101033.03;5053116;28;20487;-77
2024/03/21 08:12:58;;;;;;;9.45;7.72;;;;;;;32.35;29.16;101036.56;5052969;28;20052;-76
2024/03/21 08:16:03;;;;;;;12.55;8.57;;;;;;;33.34;27.75;101043.34;5052831;28;20104;-77
2024/03/21 08:19:08;;;;;;;11.18;7.88;;;;;;;33.84;26.46;101045.66;5053084;28;20052;-78
2024/03/21 08:22:13;;;;;;;11.75;8.32;;;;;;;34.18;26.14;101046.09;5052933;28;20056;-77
2024/03/21 08:25:17;;;;;;;12.30;9.38;;;;;;;34.76;24.96;101047.66;5053002;28;20052;-76
2024/03/21 08:28:22;;;;;;;14.20;10.65;;;;;;;34.70;24.63;101048.75;5054897;28;20064;-76
2024/03/21 08:31:27;;;;;;;13.15;10.43;;;;;;;34.27;25.00;101058.41;5056563;28;20065;-75
2024/03/21 08:34:31;;;;;;;10.57;8.93;;;;;;;35.10;24.37;101059.97;5056423;28;20049;-76
2024/03/21 08:37:36;;;;;;;10.35;8.82;;;;;;;34.74;24.61;101063.84;5044119;28;20052;-76
2024/03/21 08:40:49;;;;;;;14.70;11.48;;;;;;;35.43;24.36;101062.16;5014791;28;20428;-75
2024/03/21 08:43:54;;;;;;;14.52;11.25;;;;;;;36.06;24.24;101048.63;5014447;28;20528;-76
2024/03/21 08:46:59;;;;;;;13.23;11.13;;;;;;;35.69;23.96;101061.03;5014412;28;20477;-75
2024/03/21 08:50:04;;;;;;;14.23;10.77;;;;;;;35.63;23.83;101059.38;5023996;28;20053;-76
2024/03/21 08:53:09;;;;;;;14.15;10.77;;;;;;;36.25;24.01;101049.66;5054113;28;20057;-77
2024/03/21 08:56:13;;;;;;;13.32;11.25;;;;;;;36.27;23.47;101041.81;5054004;28;20045;-76
2024/03/21 08:59:19;;;;;;;16.08;11.25;;;;;;;36.62;22.81;101046.38;5042474;28;20061;-76
2024/03/21 09:02:24;;;;;;;12.13;10.55;;;;;;;36.45;23.41;101047.56;5053783;28;20436;-77
2024/03/21 09:05:29;;;;;;;13.18;10.95;;;;;;;36.41;23.60;101043.69;5042429;28;20045;-76
2024/03/21 09:08:34;;;;;;;13.57;9.77;;;;;;;36.77;23.82;101047.09;5053856;28;20045;-76
2024/03/21 09:11:38;;;;;;;15.20;11.65;;;;;;;36.82;23.23;101044.28;5069477;28;20494;-77
2024/03/21 09:14:43;;;;;;;14.98;11.90;;;;;;;36.78;23.69;101039.56;5075720;28;20048;-79
2024/03/21 09:17:48;;;;;;;16.88;11.13;;;;;;;36.84;23.02;101035.59;5074913;28;20391;-77
2024/03/21 09:20:56;;;;;;;18.55;13.60;;;;;;;36.74;23.59;101038.47;5075554;28;20037;-76
2024/03/21 09:24:01;;;;;;;18.67;14.75;;;;;;;36.02;23.96;101040.00;5075375;28;20376;-76
2024/03/21 09:27:06;;;;;;;15.40;13.25;;;;;;;34.45;25.53;101030.84;5075344;28;20468;-76
2024/03/21 09:30:11;;;;;;;17.77;14.57;;;;;;;32.32;27.77;101031.53;5075330;28;20044;-76
2024/03/21 09:33:16;;;;;;;17.63;14.57;;;;;;;30.80;29.13;101034.00;5075230;28;20388;-77
2024/03/21 09:36:21;;;;;;;20.08;15.95;;;;;;;29.12;31.84;101036.19;5075275;28;20036;-76
2024/03/21 09:39:26;;;;;;;20.52;15.45;;;;;;;29.03;32.20;101026.56;5074773;28;20041;-76
2024/03/21 09:42:31;;;;;;;18.50;15.85;;;;;;;28.19;33.27;101018.50;5073194;28;20120;-76
2024/03/21 09:45:39;;;;;;;19.42;15.35;;;;;;;26.93;35.34;101020.94;5072999;28;20519;-76
2024/03/21 09:48:44;;;;;;;17.10;14.05;;;;;;;26.86;35.29;101017.38;5073031;28;20045;-77
2024/03/21 09:51:48;;;;;;;18.45;14.38;;;;;;;26.73;36.04;101016.63;5072376;28;20045;-77
2024/03/21 09:54:54;;;;;;;20.10;15.90;;;;;;;25.78;38.41;101009.31;5072997;28;20048;-77
2024/03/21 09:57:59;;;;;;;19.42;14.65;;;;;;;25.74;39.04;100999.81;5072930;28;20045;-77
2024/03/21 10:01:19;;;;;;;18.90;13.23;;;;;;;25.26;40.10;100991.03;5072997;28;20052;-77
2024/03/21 10:04:23;;;;;;;16.77;12.75;;;;;;;24.94;40.87;100976.28;5072652;28;20045;-77
2024/03/21 10:07:29;;;;;;;20.50;14.15;;;;;;;24.93;42.02;100976.50;5072864;28;20044;-77
2024/03/21 10:10:34;;;;;;;19.60;15.48;;;;;;;24.33;42.73;100972.88;5072586;28;20048;-77
2024/03/21 10:13:42;;;;;;;17.15;15.15;;;;;;;23.93;43.87;100960.94;5072228;28;20438;-76
2024/03/21 10:16:47;;;;;;;20.67;14.50;;;;;;;23.49;45.17;100957.81;5072390;28;20040;-76
2024/03/21 10:19:53;;;;;;;21.05;14.20;;;;;;;23.49;45.13;100954.22;5073853;28;20044;-76
2024/03/21 10:22:58;;;;;;;21.33;14.63;;;;;;;23.22;46.35;100955.94;5073381;28;20036;-76
2024/03/21 10:26:04;;;;;;;21.13;15.43;;;;;;;23.03;46.25;100957.53;5074213;28;20036;-77
2024/03/21 10:29:13;;;;;;;21.00;15.10;;;;;;;22.69;47.09;100951.19;5073920;28;20044;-76
2024/03/21 10:32:20;;;;;;;20.88;14.45;;;;;;;22.56;48.61;100946.41;5073859;28;20044;-77
2024/03/21 10:35:25;;;;;;;21.85;13.40;;;;;;;22.53;49.19;100939.44;5074171;28;20059;-77
2024/03/21 10:38:30;;;;;;;20.05;14.52;;;;;;;22.77;48.66;100931.84;5074064;28;20395;-77
2024/03/21 10:41:37;;;;;;;22.23;16.13;;;;;;;22.37;48.96;100939.69;5074089;28;20044;-77
2024/03/21 10:44:44;;;;;;;17.90;14.15;;;;;;;22.21;49.62;100925.47;5073957;28;20499;-77
2024/03/21 10:47:52;;;;;;;22.75;13.70;;;;;;;22.29;49.22;100934.38;5074011;28;20387;-76
2024/03/21 10:51:07;;;;;;;17.77;12.43;;;;;;;22.09;49.41;100925.16;5060389;28;20045;-77
2024/03/21 10:54:13;;;;;;;18.33;12.75;;;;;;;22.21;49.51;100920.84;5053639;28;20045;-76
2024/03/21 10:57:24;;;;;;;19.85;13.88;;;;;;;22.26;49.75;100910.16;5053781;28;20376;-77
2024/03/21 11:00:34;;;;;;;20.48;14.57;;;;;;;22.21;48.61;100907.16;5053853;28;20480;-77
2024/03/21 11:03:52;;;;;;;19.58;14.30;;;;;;;21.93;49.79;100917.19;5053623;28;20045;-77
2024/03/21 11:06:58;;;;;;;21.33;13.80;;;;;;;21.96;49.95;100914.06;5053503;28;20037;-76
2024/03/21 11:10:03;;;;;;;14.52;11.13;;;;;;;22.11;49.68;100903.91;5053698;28;20457;-77
2024/03/21 11:13:07;;;;;;;18.83;13.18;;;;;;;22.02;49.73;100899.63;5041395;28;20392;-76
2024/03/21 11:16:12;;;;;;;16.48;12.63;;;;;;;21.81;49.65;100894.09;5053621;28;20049;-76
2024/03/21 11:19:17;;;;;;;24.63;13.30;;;;;;;21.69;49.32;100898.38;5053613;28;20045;-77
2024/03/21 11:22:23;;;;;;;15.13;10.77;;;;;;;21.61;49.31;100876.63;5053590;28;20460;-77
2024/03/21 11:25:28;;;;;;;14.95;11.82;;;;;;;21.53;49.38;100877.59;5053610;28;20053;-77
2024/03/21 11:28:34;;;;;;;18.38;13.00;;;;;;;21.43;49.79;100874.31;5053273;28;20041;-76
2024/03/21 11:31:43;;;;;;;19.75;13.23;;;;;;;21.46;50.30;100873.09;5053527;28;20045;-77
2024/03/21 11:34:48;;;;;;;18.58;12.98;;;;;;;21.55;51.46;100874.69;5053559;28;20390;-77
2024/03/21 11:37:53;;;;;;;14.38;10.10;;;;;;;21.61;50.74;100860.25;5053497;28;20053;-76
2024/03/21 11:40:58;;;;;;;21.15;14.60;;;;;;;21.77;51.92;100854.53;5053146;28;20045;-76
2024/03/21 11:44:03;;;;;;;19.92;14.13;;;;;;;21.68;51.57;100855.69;5053334;28;20049;-76
2024/03/21 11:47:15;;;;;;;18.05;13.68;;;;;;;21.42;52.14;100848.06;5053401;28;20041;-75
2024/03/21 11:50:20;;;;;;;21.57;14.33;;;;;;;21.36;52.52;100852.41;5040563;28;20045;-76
2024/03/21 11:53:25;;;;;;;18.23;13.27;;;;;;;21.28;52.13;100849.78;5053266;28;20049;-76
2024/03/21 11:56:31;;;;;;;19.83;13.38;;;;;;;21.33;52.23;100841.03;5053195;28;20037;-76
2024/03/21 11:59:38;;;;;;;17.50;12.15;;;;;;;21.18;52.24;100838.31;5052959;28;20041;-77
2024/03/21 12:02:43;;;;;;;19.73;13.00;;;;;;;21.18;53.01;100832.84;5055792;28;20408;-77
2024/03/21 12:05:47;;;;;;;18.77;13.38;;;;;;;21.33;52.68;100835.59;5057258;28;20041;-77
2024/03/21 12:08:53;;;;;;;18.77;12.63;;;;;;;21.37;52.09;100831.41;5044431;28;20041;-77
2024/03/21 12:11:58;;;;;;;23.13;13.52;;;;;;;21.36;52.04;100829.72;5056932;28;20388;-77
2024/03/21 12:15:04;;;;;;;16.67;11.50;;;;;;;21.39;51.87;100818.41;5056796;28;20468;-77
2024/03/21 12:18:09;;;;;;;14.50;11.02;;;;;;;21.47;52.16;100809.25;5044444;28;20048;-77
2024/03/21 12:21:20;;;;;;;22.92;14.05;;;;;;;21.63;51.19;100809.84;5056576;28;20384;-77
2024/03/21 12:24:26;;;;;;;19.65;14.20;;;;;;;21.47;51.54;100817.44;5044391;28;20044;-77
2024/03/21 12:27:31;;;;;;;17.67;12.75;;;;;;;21.37;52.28;100810.41;5056327;28;20396;-77
2024/03/21 12:30:38;;;;;;;22.48;13.50;;;;;;;21.41;51.14;100808.13;5056498;28;20045;-77
2024/03/21 12:33:44;;;;;;;18.83;13.02;;;;;;;21.43;52.21;100800.56;5056501;28;20392;-77
2024/03/21 12:36:49;;;;;;;22.23;13.73;;;;;;;21.70;51.94;100797.06;5056412;28;20396;-77
2024/03/21 12:39:54;;;;;;;18.17;13.48;;;;;;;21.85;50.85;100791.59;5056355;28;20045;-77
2024/03/21 12:42:59;;;;;;;17.17;13.57;;;;;;;21.87;51.17;100784.84;5056214;28;20045;-77
2024/03/21 12:46:04;;;;;;;19.60;13.90;;;;;;;21.82;50.83;100776.41;5056005;28;20045;-77
2024/03/21 12:49:09;;;;;;;17.65;13.25;;;;;;;21.81;51.15;100779.31;5056146;28;20049;-77
2024/03/21 12:52:14;;;;;;;18.58;13.27;;;;;;;21.76;50.75;100765.38;5076183;28;20040;-76
2024/03/21 12:55:18;;;;;;;16.35;12.50;;;;;;;21.76;51.27;100759.91;5076020;28;20044;-76
2024/03/21 12:58:23;;;;;;;17.00;13.90;;;;;;;21.62;51.76;100755.38;5063695;28;20044;-76
2024/03/21 13:01:28;;;;;;;18.90;13.65;;;;;;;21.53;51.75;100749.19;5076026;28;20464;-78
2024/03/21 13:04:33;;;;;;;16.30;13.00;;;;;;;21.56;52.07;100737.03;5075916;28;20052;-77
2024/03/21 13:07:38;;;;;;;17.83;12.70;;;;;;;21.60;52.54;100733.75;5075834;28;20036;-77
2024/03/21 13:10:43;;;;;;;17.05;12.13;;;;;;;21.67;52.75;100715.50;5075500;28;20400;-77
2024/03/21 13:13:47;;;;;;;16.83;11.48;;;;;;;21.76;53.00;100713.47;5075027;28;20045;-77
2024/03/21 13:16:52;;;;;;;19.33;14.02;;;;;;;21.96;52.36;100717.22;5075717;28;20036;-78
2024/03/21 13:19:57;;;;;;;17.85;13.38;;;;;;;21.90;52.53;100707.94;5075621;28;20488;-77
2024/03/21 13:23:01;;;;;;;18.70;13.98;;;;;;;21.76;53.59;100713.47;5075550;28;20040;-79
2024/03/21 13:26:06;;;;;;;19.63;14.43;;;;;;;21.75;53.33;100714.53;5075560;28;20052;-79
2024/03/21 13:29:11;;;;;;;20.00;15.45;;;;;;;21.59;53.22;100707.44;5075421;28;20044;-77
2024/03/21 13:32:15;;;;;;;23.00;14.52;;;;;;;21.66;53.61;100697.41;5076067;28;20041;-77
2024/03/21 13:35:21;;;;;;;21.65;15.32;;;;;;;21.67;53.58;100712.78;5063040;28;20052;-76
2024/03/21 13:38:29;;;;;;;18.27;13.98;;;;;;;21.60;54.48;100700.09;5075279;28;20057;-76
2024/03/21 13:41:34;;;;;;;18.17;13.85;;;;;;;21.65;54.84;100692.16;5075264;28;20048;-77
2024/03/21 13:44:39;;;;;;;18.45;15.10;;;;;;;21.59;54.37;100687.47;5075152;28;20048;-76
2024/03/21 13:47:43;;;;;;;19.08;14.40;;;;;;;21.56;55.31;100685.97;5075125;28;20048;-78
2024/03/21 13:50:48;;;;;;;20.60;14.65;;;;;;;21.67;54.76;100684.59;5063683;28;20049;-76
2024/03/21 13:53:53;;;;;;;20.20;15.13;;;;;;;21.62;54.23;100668.81;5054798;28;20395;-78
2024/03/21 13:56:58;;;;;;;18.73;14.10;;;;;;;21.60;55.01;100664.59;5042731;28;20040;-78
2024/03/21 14:00:06;;;;;;;23.67;15.63;;;;;;;21.71;55.25;100670.34;5054970;28;20404;-78
2024/03/21 14:03:22;;;;;;;18.77;14.85;;;;;;;21.68;55.76;100665.25;5054726;28;20045;-78
2024/03/21 14:06:27;;;;;;;20.77;15.07;;;;;;;21.77;54.83;100657.78;5054589;28;20041;-77
2024/03/21 14:09:32;;;;;;;22.40;15.05;;;;;;;21.78;55.62;100665.75;5042541;28;20045;-78
2024/03/21 14:12:37;;;;;;;18.90;14.93;;;;;;;21.63;56.05;100654.09;5054665;28;20048;-77